createdAt,value
2022-12-15T00:01:02.028Z,5.96
2022-12-15T00:03:24.744Z,5.92
2022-12-15T00:05:50.118Z,5.99
2022-12-15T00:08:10.992Z,5.99
2022-12-15T00:10:31.876Z,5.90
2022-12-15T00:12:52.488Z,5.89
2022-12-15T00:15:14.144Z,5.86
2022-12-15T00:17:34.920Z,5.90
2022-12-15T00:19:55.655Z,5.89
2022-12-15T00:22:17.351Z,5.86
2022-12-15T00:24:38.334Z,5.92
2022-12-15T00:26:58.826Z,5.86
2022-12-15T00:29:19.470Z,5.89
2022-12-15T00:31:40.075Z,5.92
2022-12-15T00:34:00.610Z,5.93
2022-12-15T00:36:21.388Z,5.90
2022-12-15T00:38:41.718Z,5.90
2022-12-15T00:40:43.853Z,5.88
2022-12-15T00:42:45.965Z,5.89
2022-12-15T00:44:51.716Z,5.88
2022-12-15T00:46:56.818Z,5.91
2022-12-15T00:48:59.500Z,5.97
2022-12-15T00:51:01.682Z,6.02
2022-12-15T00:53:25.137Z,6.04
2022-12-15T00:55:45.951Z,6.07
2022-12-15T00:58:06.638Z,6.05
2022-12-15T01:00:29.039Z,6.05
2022-12-15T01:02:49.995Z,6.06
2022-12-15T01:05:10.878Z,6.00
2022-12-15T01:07:31.502Z,6.02
2022-12-15T01:09:52.464Z,6.00
2022-12-15T01:12:16.149Z,6.05
2022-12-15T01:14:36.464Z,6.06
2022-12-15T01:16:56.867Z,6.02
2022-12-15T01:19:17.687Z,6.06
2022-12-15T01:21:24.278Z,6.02
2022-12-15T01:23:27.870Z,5.97
2022-12-15T01:25:30.513Z,5.86
2022-12-15T01:27:36.043Z,5.85
2022-12-15T01:29:38.209Z,5.86
2022-12-15T01:31:40.686Z,5.81
2022-12-15T01:33:44.873Z,5.79
2022-12-15T01:35:56.152Z,5.77
2022-12-15T01:37:58.328Z,5.84
2022-12-15T01:40:19.245Z,5.90
2022-12-15T01:42:21.428Z,5.88
2022-12-15T01:44:24.718Z,5.93
2022-12-15T01:46:26.856Z,5.94
2022-12-15T01:48:35.979Z,5.87
2022-12-15T01:50:44.454Z,5.86
2022-12-15T01:52:50.745Z,5.99
2022-12-15T01:54:57.982Z,5.95
2022-12-15T01:57:07.779Z,5.86
2022-12-15T01:59:15.228Z,5.93
2022-12-15T02:01:17.810Z,5.92
2022-12-15T02:03:20.557Z,5.95
2022-12-15T02:05:24.359Z,6.01
2022-12-15T02:07:27.302Z,6.01
2022-12-15T02:09:30.205Z,6.01
2022-12-15T02:11:54.159Z,5.96
2022-12-15T02:14:05.621Z,5.93
2022-12-15T02:16:30.979Z,5.96
2022-12-15T02:18:46.796Z,5.94
2022-12-15T02:20:58.010Z,5.86
2022-12-15T02:23:52.178Z,5.83
2022-12-15T02:26:12.323Z,5.92
2022-12-15T02:28:31.988Z,5.92
2022-12-15T02:31:18.755Z,5.94
2022-12-15T02:33:27.622Z,6.10
2022-12-15T02:35:53.933Z,6.12
2022-12-15T02:37:56.037Z,6.08
2022-12-15T02:39:58.217Z,6.04
2022-12-15T02:42:00.676Z,5.95
2022-12-15T02:44:41.587Z,5.94
2022-12-15T02:46:46.552Z,5.95
2022-12-15T02:49:12.505Z,5.99
2022-12-15T02:51:59.063Z,6.01
2022-12-15T02:54:30.000Z,5.98
2022-12-15T02:56:46.992Z,5.97
2022-12-15T02:59:00.988Z,6.01
2022-12-15T03:01:13.792Z,5.97
2022-12-15T03:03:20.815Z,6.02
2022-12-15T03:05:25.213Z,6.08
2022-12-15T03:07:28.178Z,6.08
2022-12-15T03:09:31.633Z,6.15
2022-12-15T03:11:34.608Z,6.24
2022-12-15T03:13:36.714Z,6.29
2022-12-15T03:15:39.165Z,6.29
2022-12-15T03:17:41.610Z,6.35
2022-12-15T03:19:43.645Z,6.36
2022-12-15T03:21:45.977Z,6.29
2022-12-15T03:23:51.153Z,6.30
2022-12-15T03:25:53.527Z,6.30
2022-12-15T03:27:56.100Z,6.27
2022-12-15T03:29:58.272Z,6.21
2022-12-15T03:32:00.952Z,6.21
2022-12-15T03:34:03.190Z,6.23
2022-12-15T03:36:05.773Z,6.16
2022-12-15T03:38:08.071Z,6.17
2022-12-15T03:40:11.510Z,6.18
2022-12-15T03:42:13.481Z,6.14
2022-12-15T03:44:15.386Z,6.16
2022-12-15T03:46:17.694Z,6.21
2022-12-15T03:48:19.900Z,6.19
2022-12-15T03:50:26.476Z,6.27
2022-12-15T03:52:28.733Z,6.25
2022-12-15T03:54:33.270Z,6.25
2022-12-15T03:56:35.200Z,6.26
2022-12-15T03:58:37.765Z,6.22
2022-12-15T04:00:40.024Z,6.28
2022-12-15T04:02:43.220Z,6.26
2022-12-15T04:04:47.773Z,6.21
2022-12-15T04:06:49.753Z,6.21
2022-12-15T04:08:52.140Z,6.21
2022-12-15T04:10:54.311Z,6.21
2022-12-15T04:13:00.154Z,6.21
2022-12-15T04:15:02.185Z,6.27
2022-12-15T04:17:04.218Z,6.25
2022-12-15T04:19:24.980Z,6.23
2022-12-15T04:21:27.098Z,6.21
2022-12-15T04:23:29.587Z,6.29
2022-12-15T04:25:51.033Z,6.26
2022-12-15T04:28:11.904Z,6.22
2022-12-15T04:30:32.838Z,6.30
2022-12-15T04:32:53.644Z,6.31
2022-12-15T04:35:14.200Z,6.25
2022-12-15T04:37:34.908Z,6.25
2022-12-15T04:39:58.350Z,6.26
2022-12-15T04:42:21.442Z,6.28
2022-12-15T04:44:42.494Z,6.29
2022-12-15T04:47:03.236Z,6.25
2022-12-15T04:49:24.099Z,6.28
2022-12-15T04:51:44.709Z,6.24
2022-12-15T04:54:05.256Z,6.27
2022-12-15T04:56:30.832Z,6.25
2022-12-15T04:58:53.060Z,6.28
2022-12-15T05:01:16.481Z,6.29
2022-12-15T05:03:37.449Z,6.32
2022-12-15T05:05:58.633Z,6.33
2022-12-15T05:08:19.524Z,6.26
2022-12-15T05:10:40.425Z,6.33
2022-12-15T05:13:02.307Z,6.37
2022-12-15T05:15:26.125Z,6.35
2022-12-15T05:17:49.212Z,6.36
2022-12-15T05:20:09.549Z,6.35
2022-12-15T05:22:30.293Z,6.29
2022-12-15T05:24:50.821Z,6.28
2022-12-15T05:27:11.839Z,6.27
2022-12-15T05:29:32.497Z,6.30
2022-12-15T05:31:52.952Z,6.29
2022-12-15T05:34:02.607Z,6.29
2022-12-15T05:36:07.548Z,6.35
2022-12-15T05:38:09.740Z,6.41
2022-12-15T05:40:15.166Z,6.37
2022-12-15T05:42:18.681Z,6.35
2022-12-15T05:44:20.880Z,6.29
2022-12-15T05:46:23.100Z,6.31
2022-12-15T05:48:27.513Z,6.32
2022-12-15T05:50:31.160Z,6.35
2022-12-15T05:52:33.328Z,6.31
2022-12-15T05:54:35.845Z,6.32
2022-12-15T05:56:38.618Z,6.27
2022-12-15T05:58:45.468Z,6.32
2022-12-15T06:00:47.841Z,6.30
2022-12-15T06:02:50.316Z,6.30
2022-12-15T06:04:52.870Z,6.30
2022-12-15T06:06:54.951Z,6.29
2022-12-15T06:08:58.117Z,6.32
2022-12-15T06:11:01.018Z,6.32
2022-12-15T06:13:03.187Z,6.29
2022-12-15T06:15:08.595Z,6.26
2022-12-15T06:17:10.693Z,6.27
2022-12-15T06:19:15.848Z,6.22
2022-12-15T06:21:20.540Z,6.23
2022-12-15T06:23:22.825Z,6.21
2022-12-15T06:25:24.921Z,6.24
2022-12-15T06:27:27.372Z,6.21
2022-12-15T06:29:29.479Z,6.25
2022-12-15T06:31:32.904Z,6.26
2022-12-15T06:33:35.446Z,6.23
2022-12-15T06:35:38.075Z,6.23
2022-12-15T06:37:40.225Z,6.23
2022-12-15T06:39:42.927Z,6.26
2022-12-15T06:41:45.495Z,6.21
2022-12-15T06:43:52.714Z,6.22
2022-12-15T06:45:54.853Z,6.27
2022-12-15T06:48:01.311Z,6.26
2022-12-15T06:50:04.047Z,6.25
2022-12-15T06:52:06.074Z,6.25
2022-12-15T06:54:11.371Z,6.27
2022-12-15T06:56:20.515Z,6.21
2022-12-15T06:58:23.042Z,6.18
2022-12-15T07:00:50.564Z,6.21
2022-12-15T07:02:53.655Z,6.28
2022-12-15T07:04:57.223Z,6.25
2022-12-15T07:06:59.766Z,6.23
2022-12-15T07:09:02.015Z,6.25
2022-12-15T07:11:05.486Z,6.27
2022-12-15T07:13:11.390Z,6.21
2022-12-15T07:15:13.655Z,6.26
2022-12-15T07:17:16.825Z,6.21
2022-12-15T07:19:19.027Z,6.25
2022-12-15T07:21:21.074Z,6.26
2022-12-15T07:23:45.966Z,6.24
2022-12-15T07:25:45.608Z,6.30
2022-12-15T07:27:48.096Z,6.29
2022-12-15T07:29:50.475Z,6.27
2022-12-15T07:31:52.935Z,6.25
2022-12-15T07:33:55.175Z,6.25
2022-12-15T07:35:57.306Z,6.29
2022-12-15T07:38:00.533Z,6.31
2022-12-15T07:40:05.017Z,6.32
2022-12-15T07:42:07.259Z,6.35
2022-12-15T07:44:10.393Z,6.39
2022-12-15T07:46:13.089Z,6.39
2022-12-15T07:48:15.139Z,6.38
2022-12-15T07:50:18.977Z,6.35
2022-12-15T07:52:21.192Z,6.38
2022-12-15T07:54:23.723Z,6.33
2022-12-15T07:56:28.182Z,6.31
2022-12-15T07:58:30.307Z,6.36
2022-12-15T08:00:32.651Z,6.38
2022-12-15T08:02:34.878Z,6.40
2022-12-15T08:04:37.437Z,6.43
2022-12-15T08:06:39.621Z,6.48
2022-12-15T08:08:41.823Z,6.45
2022-12-15T08:10:44.631Z,6.46
2022-12-15T08:12:46.795Z,6.48
2022-12-15T08:14:50.179Z,6.47
2022-12-15T08:16:52.593Z,6.49
2022-12-15T08:18:57.368Z,6.47
2022-12-15T08:21:04.329Z,6.40
2022-12-15T08:23:06.349Z,6.51
2022-12-15T08:25:08.830Z,6.54
2022-12-15T08:27:11.012Z,6.59
2022-12-15T08:31:36.790Z,6.51
2022-12-15T08:33:39.910Z,6.56
2022-12-15T08:35:56.306Z,6.67
2022-12-15T08:38:05.451Z,6.62
2022-12-15T08:40:08.216Z,6.63
2022-12-15T08:42:10.407Z,6.59
2022-12-15T08:44:12.443Z,6.63
2022-12-15T08:46:17.121Z,6.70
2022-12-15T08:48:19.234Z,6.69
2022-12-15T08:50:22.298Z,6.65
2022-12-15T08:52:24.769Z,6.68
2022-12-15T08:54:29.671Z,6.69
2022-12-15T08:56:31.799Z,6.73
2022-12-15T08:58:34.317Z,6.67
2022-12-15T09:00:36.330Z,6.71
2022-12-15T09:02:38.567Z,6.75
2022-12-15T09:04:40.995Z,6.79
2022-12-15T09:06:43.989Z,6.81
2022-12-15T09:08:50.804Z,6.84
2022-12-15T09:10:53.183Z,6.86
2022-12-15T09:12:55.132Z,6.82
2022-12-15T09:14:57.233Z,6.90
2022-12-15T09:16:59.420Z,6.88
2022-12-15T09:19:03.666Z,6.88
2022-12-15T09:21:08.007Z,6.81
2022-12-15T09:23:10.087Z,6.85
2022-12-15T09:25:12.103Z,6.84
2022-12-15T09:27:14.495Z,6.85
2022-12-15T09:29:16.507Z,6.85
2022-12-15T09:31:22.705Z,6.85
2022-12-15T09:33:24.891Z,6.82
2022-12-15T09:35:27.798Z,6.87
2022-12-15T09:37:31.341Z,6.89
2022-12-15T09:39:34.199Z,7.06
2022-12-15T09:41:36.879Z,7.16
2022-12-15T09:43:47.958Z,7.10
2022-12-15T09:45:57.432Z,7.13
2022-12-15T09:48:05.096Z,7.08
2022-12-15T09:50:12.178Z,7.11
2022-12-15T09:52:20.746Z,7.19
2022-12-15T09:54:30.876Z,7.20
2022-12-15T09:56:42.693Z,7.24
2022-12-15T09:58:56.815Z,7.19
2022-12-15T10:01:38.290Z,7.25
2022-12-15T10:04:00.467Z,7.19
2022-12-15T10:06:22.054Z,7.10
2022-12-15T10:08:30.697Z,7.23
2022-12-15T10:11:01.955Z,7.27
2022-12-15T10:13:12.151Z,7.22
2022-12-15T10:15:26.454Z,7.20
2022-12-15T10:17:59.411Z,7.26
2022-12-15T10:20:21.081Z,7.25
2022-12-15T10:22:30.279Z,7.34
2022-12-15T10:27:18.361Z,7.27
2022-12-15T10:29:57.300Z,7.23
2022-12-15T10:32:09.715Z,7.24
2022-12-15T10:34:25.614Z,7.31
2022-12-15T10:36:27.931Z,7.28
2022-12-15T10:38:45.935Z,7.32
2022-12-15T10:40:59.840Z,7.40
2022-12-15T10:43:12.812Z,7.40
2022-12-15T10:45:41.454Z,7.34
2022-12-15T10:47:59.301Z,7.34
2022-12-15T10:50:25.010Z,7.46
2022-12-15T10:52:37.565Z,7.56
2022-12-15T10:54:45.937Z,7.53
2022-12-15T10:56:57.000Z,7.45
2022-12-15T10:59:02.953Z,7.57
2022-12-15T11:01:20.676Z,7.60
2022-12-15T11:03:25.247Z,7.56
2022-12-15T11:05:28.485Z,7.54
2022-12-15T11:07:44.110Z,7.46
2022-12-15T11:09:49.189Z,7.53
2022-12-15T11:12:12.247Z,7.67
2022-12-15T11:14:19.800Z,7.74
2022-12-15T11:16:22.000Z,7.80
2022-12-15T11:18:28.209Z,7.77
2022-12-15T11:20:41.088Z,7.69
2022-12-15T11:22:52.481Z,7.73
2022-12-15T11:25:17.734Z,7.73
2022-12-15T11:27:35.987Z,7.71
2022-12-15T11:29:47.219Z,7.81
2022-12-15T11:31:54.909Z,7.79
2022-12-15T11:33:57.371Z,7.90
2022-12-15T11:36:10.580Z,7.82
2022-12-15T11:38:33.095Z,7.75
2022-12-15T11:40:42.624Z,7.82
2022-12-15T11:43:02.211Z,7.85
2022-12-15T11:45:19.362Z,7.88
2022-12-15T11:47:49.255Z,7.87
2022-12-15T11:50:17.811Z,7.97
2022-12-15T11:53:13.731Z,7.91
2022-12-15T11:55:41.201Z,7.98
2022-12-15T11:57:50.531Z,7.96
2022-12-15T12:08:01.579Z,7.92
2022-12-15T12:10:27.848Z,7.87
2022-12-15T12:12:50.489Z,7.93
2022-12-15T12:15:13.707Z,7.94
2022-12-15T12:17:42.303Z,7.90
2022-12-15T12:19:58.027Z,7.92
2022-12-15T12:22:06.366Z,7.92
2022-12-15T12:24:23.712Z,7.94
2022-12-15T12:26:50.209Z,7.97
2022-12-15T12:29:08.029Z,7.91
2022-12-15T12:31:39.036Z,8.01
2022-12-15T12:33:47.329Z,8.05
2022-12-15T12:35:57.583Z,8.03
2022-12-15T12:38:11.343Z,7.99
2022-12-15T12:40:28.742Z,8.02
2022-12-15T12:42:41.147Z,8.10
2022-12-15T12:44:43.558Z,8.14
2022-12-15T12:46:50.815Z,8.13
2022-12-15T12:49:26.445Z,8.10
2022-12-15T12:51:33.145Z,8.15
2022-12-15T12:53:35.852Z,8.16
2022-12-15T12:55:42.576Z,8.10
2022-12-15T12:57:46.359Z,8.07
2022-12-15T12:59:52.675Z,8.13
2022-12-15T13:02:11.679Z,8.08
2022-12-15T13:04:40.380Z,8.24
2022-12-15T13:06:42.164Z,8.27
2022-12-15T13:08:51.178Z,8.27
2022-12-15T13:10:55.870Z,8.36
2022-12-15T13:12:59.391Z,8.37
2022-12-15T13:15:11.148Z,8.30
2022-12-15T13:17:31.277Z,8.33
2022-12-15T13:20:01.419Z,8.34
2022-12-15T13:22:03.664Z,8.23
2022-12-15T13:24:28.816Z,8.07
2022-12-15T13:26:34.762Z,8.22
2022-12-15T13:28:36.775Z,8.24
2022-12-15T13:31:17.617Z,8.21
2022-12-15T13:33:19.766Z,8.35
2022-12-15T13:35:33.395Z,8.37
2022-12-15T13:40:35.950Z,8.41
2022-12-15T13:42:53.068Z,8.46
2022-12-15T13:45:13.734Z,8.38
2022-12-15T13:47:23.040Z,8.41
2022-12-15T13:49:53.271Z,8.43
2022-12-15T13:52:03.787Z,8.56
2022-12-15T13:54:10.026Z,8.57
2022-12-15T13:56:12.013Z,8.59
2022-12-15T13:58:17.739Z,8.55
2022-12-15T14:00:20.356Z,8.57
2022-12-15T14:02:27.269Z,8.54
2022-12-15T14:04:29.551Z,8.63
2022-12-15T14:06:44.395Z,8.62
2022-12-15T14:08:50.845Z,8.62
2022-12-15T14:10:56.197Z,8.60
2022-12-15T14:13:01.588Z,8.67
2022-12-15T14:15:04.718Z,8.64
2022-12-15T14:17:14.571Z,8.66
2022-12-15T14:19:18.880Z,8.74
2022-12-15T14:21:24.026Z,8.70
2022-12-15T14:23:40.727Z,8.68
2022-12-15T14:25:55.308Z,8.76
2022-12-15T14:27:58.225Z,8.71
2022-12-15T14:30:29.641Z,8.71
2022-12-15T14:32:32.115Z,8.70
2022-12-15T14:34:40.492Z,8.76
2022-12-15T14:36:44.554Z,8.80
2022-12-15T14:38:54.302Z,8.85
2022-12-15T14:41:00.413Z,8.77
2022-12-15T14:43:03.246Z,8.75
2022-12-15T14:45:06.326Z,8.79
2022-12-15T14:47:19.761Z,8.79
2022-12-15T14:49:26.682Z,8.82
2022-12-15T14:51:31.291Z,8.83
2022-12-15T14:53:45.053Z,8.82
2022-12-15T14:55:53.741Z,8.83
2022-12-15T14:58:01.174Z,8.86
2022-12-15T15:00:32.112Z,8.84
2022-12-15T15:02:35.602Z,8.90
2022-12-15T15:03:07.530Z,8.40
2022-12-15T15:04:42.167Z,8.91
2022-12-15T15:06:50.629Z,8.92
2022-12-15T15:08:57.319Z,8.95
2022-12-15T15:11:19.840Z,8.94
2022-12-15T15:13:25.511Z,8.93
2022-12-15T15:15:27.989Z,8.93
2022-12-15T15:17:51.195Z,8.94
2022-12-15T15:19:58.021Z,8.98
2022-12-15T15:22:01.602Z,9.00
2022-12-15T15:24:21.958Z,9.01
2022-12-15T15:26:28.266Z,9.00
2022-12-15T15:28:44.179Z,8.99
2022-12-15T15:30:57.890Z,9.01
2022-12-15T15:33:02.356Z,9.03
2022-12-15T15:35:05.372Z,9.01
2022-12-15T15:37:27.798Z,8.94
2022-12-15T15:39:30.772Z,8.97
2022-12-15T15:41:33.969Z,8.97
2022-12-15T15:43:36.423Z,8.96
2022-12-15T15:45:41.955Z,8.95
2022-12-15T15:47:48.651Z,8.90
2022-12-15T15:49:52.383Z,8.89
2022-12-15T15:51:56.650Z,8.87
2022-12-15T15:54:02.693Z,8.90
2022-12-15T15:56:12.403Z,8.90
2022-12-15T15:58:16.057Z,8.87
2022-12-15T16:00:21.785Z,8.88
2022-12-15T16:02:24.041Z,8.90
2022-12-15T16:04:26.663Z,8.89
2022-12-15T16:06:29.325Z,8.88
2022-12-15T16:08:35.517Z,8.90
2022-12-15T16:10:38.081Z,8.92
2022-12-15T16:12:49.588Z,8.91
2022-12-15T16:14:52.166Z,8.93
2022-12-15T16:17:00.453Z,8.91
2022-12-15T16:19:05.614Z,8.87
2022-12-15T16:21:14.241Z,8.78
2022-12-15T16:23:20.539Z,8.87
2022-12-15T16:25:48.419Z,8.89
2022-12-15T16:28:34.787Z,8.89
2022-12-15T16:30:37.127Z,8.96
2022-12-15T16:32:39.067Z,8.98
2022-12-15T16:34:42.259Z,9.00
2022-12-15T16:36:45.269Z,9.01
2022-12-15T16:38:48.065Z,8.99
2022-12-15T16:40:50.624Z,9.01
2022-12-15T16:43:04.260Z,8.97
2022-12-15T16:45:18.272Z,9.01
2022-12-15T16:47:20.358Z,8.97
2022-12-15T16:49:22.397Z,8.94
2022-12-15T16:51:39.287Z,8.81
2022-12-15T16:53:43.075Z,8.79
2022-12-15T16:55:45.979Z,8.72
2022-12-15T16:57:48.806Z,8.71
2022-12-15T16:59:51.835Z,8.72
2022-12-15T17:01:56.066Z,8.63
2022-12-15T17:04:00.862Z,8.67
2022-12-15T17:06:07.454Z,8.70
2022-12-15T17:08:23.659Z,8.71
2022-12-15T17:10:28.777Z,8.76
2022-12-15T17:12:30.957Z,8.85
2022-12-15T17:14:32.973Z,8.91
2022-12-15T17:16:35.079Z,8.96
2022-12-15T17:18:38.128Z,8.91
2022-12-15T17:20:40.258Z,8.90
2022-12-15T17:22:42.280Z,8.89
2022-12-15T17:24:46.107Z,8.83
2022-12-15T17:26:48.310Z,8.82
2022-12-15T17:28:50.577Z,8.80
2022-12-15T17:30:52.990Z,8.83
2022-12-15T17:33:33.544Z,8.70
2022-12-15T17:35:36.072Z,8.76
2022-12-15T17:37:39.633Z,8.78
2022-12-15T17:39:44.986Z,8.76
2022-12-15T17:42:04.581Z,8.69
2022-12-15T17:44:32.827Z,8.63
2022-12-15T17:46:36.176Z,8.68
2022-12-15T17:48:40.892Z,8.74
2022-12-15T17:50:49.832Z,8.80
2022-12-15T17:52:52.394Z,8.80
2022-12-15T17:54:55.144Z,8.76
2022-12-15T17:56:57.610Z,8.75
2022-12-15T17:59:02.958Z,8.71
2022-12-15T18:01:05.442Z,8.69
2022-12-15T18:03:09.562Z,8.83
2022-12-15T18:05:11.841Z,8.89
2022-12-15T18:07:20.800Z,8.93
2022-12-15T18:09:24.500Z,9.00
2022-12-15T18:11:26.603Z,9.05
2022-12-15T18:13:35.642Z,9.03
2022-12-15T18:15:38.500Z,9.04
2022-12-15T18:17:40.580Z,9.05
2022-12-15T18:19:42.560Z,9.06
2022-12-15T18:21:44.804Z,9.03
2022-12-15T18:23:49.676Z,9.06
2022-12-15T18:25:51.942Z,9.07
2022-12-15T18:27:54.839Z,9.09
2022-12-15T18:29:57.434Z,9.10
2022-12-15T18:31:59.794Z,9.09
2022-12-15T18:34:04.751Z,9.08
2022-12-15T18:36:09.125Z,9.12
2022-12-15T18:38:31.614Z,9.03
2022-12-15T18:40:33.833Z,9.09
2022-12-15T18:42:37.358Z,9.07
2022-12-15T18:44:40.433Z,9.10
2022-12-15T18:46:48.131Z,9.11
2022-12-15T18:48:50.433Z,9.12
2022-12-15T18:50:54.190Z,9.11
2022-12-15T18:53:02.455Z,9.07
2022-12-15T18:55:14.653Z,9.12
2022-12-15T18:57:38.921Z,8.98
2022-12-15T18:59:41.314Z,9.07
2022-12-15T19:01:45.797Z,9.07
2022-12-15T19:03:48.519Z,9.09
2022-12-15T19:05:57.044Z,9.08
2022-12-15T19:08:20.354Z,9.04
2022-12-15T19:10:22.450Z,9.03
2022-12-15T19:12:24.803Z,9.01
2022-12-15T19:14:43.243Z,9.01
2022-12-15T19:17:06.131Z,9.05
2022-12-15T19:19:30.284Z,8.94
2022-12-15T19:21:53.330Z,8.97
2022-12-15T19:23:55.588Z,9.01
2022-12-15T19:25:58.142Z,8.99
2022-12-15T19:28:02.841Z,8.98
2022-12-15T19:30:22.713Z,8.89
2022-12-15T19:32:24.740Z,8.98
2022-12-15T19:34:27.111Z,8.99
2022-12-15T19:36:36.568Z,9.06
2022-12-15T19:38:39.185Z,9.00
2022-12-15T19:40:41.283Z,8.95
2022-12-15T19:42:44.999Z,9.03
2022-12-15T19:44:47.288Z,9.07
2022-12-15T19:46:49.491Z,9.06
2022-12-15T19:48:51.869Z,9.07
2022-12-15T19:50:54.883Z,8.97
2022-12-15T19:53:01.170Z,8.94
2022-12-15T19:55:03.610Z,8.99
2022-12-15T19:57:13.761Z,9.01
2022-12-15T19:59:23.827Z,8.94
2022-12-15T20:01:26.272Z,9.00
2022-12-15T20:03:30.486Z,9.02
2022-12-15T20:05:33.005Z,8.98
2022-12-15T20:07:35.323Z,8.94
2022-12-15T20:09:38.567Z,8.87
2022-12-15T20:11:40.598Z,8.88
2022-12-15T20:13:43.007Z,8.92
2022-12-15T20:15:45.706Z,8.95
2022-12-15T20:17:52.936Z,8.98
2022-12-15T20:19:56.745Z,8.94
2022-12-15T20:21:59.247Z,8.98
2022-12-15T20:24:08.121Z,8.99
2022-12-15T20:26:12.116Z,8.94
2022-12-15T20:28:22.509Z,8.91
2022-12-15T20:30:29.189Z,8.90
2022-12-15T20:32:38.139Z,8.92
2022-12-15T20:34:43.541Z,9.04
2022-12-15T20:36:47.489Z,9.09
2022-12-15T20:38:49.745Z,9.06
2022-12-15T20:40:56.745Z,9.02
2022-12-15T20:42:59.384Z,9.05
2022-12-15T20:45:02.915Z,9.05
2022-12-15T20:47:05.603Z,9.05
2022-12-15T20:49:16.145Z,8.93
2022-12-15T20:51:24.177Z,8.86
2022-12-15T20:53:27.409Z,8.91
2022-12-15T20:55:30.411Z,8.93
2022-12-15T20:57:32.394Z,8.89
2022-12-15T20:59:34.408Z,8.84
2022-12-15T21:01:41.457Z,8.96
2022-12-15T21:03:43.837Z,9.00
2022-12-15T21:05:46.516Z,9.05
2022-12-15T21:07:49.247Z,9.11
2022-12-15T21:09:51.710Z,9.17
2022-12-15T21:11:55.237Z,9.17
2022-12-15T21:14:04.111Z,9.21
2022-12-15T21:16:07.134Z,9.29
2022-12-15T21:18:57.157Z,9.29
2022-12-15T21:20:34.814Z,9.29
2022-12-15T21:22:37.067Z,9.23
2022-12-15T21:24:39.638Z,9.21
2022-12-15T21:26:41.766Z,9.20
2022-12-15T21:28:43.810Z,9.10
2022-12-15T21:30:46.151Z,9.13
2022-12-15T21:32:49.502Z,9.14
2022-12-15T21:34:52.368Z,9.18
2022-12-15T21:36:57.675Z,9.20
2022-12-15T21:39:00.077Z,9.20
2022-12-15T21:41:07.810Z,9.22
2022-12-15T21:43:11.928Z,9.29
2022-12-15T21:45:16.333Z,9.35
2022-12-15T21:47:21.266Z,9.37
2022-12-15T21:49:23.701Z,9.43
2022-12-15T21:51:27.838Z,9.43
2022-12-15T21:53:30.240Z,9.46
2022-12-15T21:55:32.652Z,9.41
2022-12-15T21:57:34.714Z,9.42
2022-12-15T21:59:36.966Z,9.40
2022-12-15T22:01:39.601Z,9.41
2022-12-15T22:03:46.080Z,9.46
2022-12-15T22:05:48.107Z,9.50
2022-12-15T22:07:51.612Z,9.51
2022-12-15T22:09:53.983Z,9.57
2022-12-15T22:11:57.527Z,9.58
2022-12-15T22:14:13.632Z,9.57
2022-12-15T22:16:18.637Z,9.56
2022-12-15T22:18:22.607Z,9.48
2022-12-15T22:20:25.612Z,9.38
2022-12-15T22:22:31.709Z,9.35
2022-12-15T22:24:34.428Z,9.40
2022-12-15T22:26:37.640Z,9.38
2022-12-15T22:28:42.609Z,9.29
2022-12-15T22:30:44.880Z,9.29
2022-12-15T22:32:47.177Z,9.40
2022-12-15T22:34:49.716Z,9.45
2022-12-15T22:36:52.798Z,9.45
2022-12-15T22:38:56.973Z,9.42
2022-12-15T22:41:00.111Z,9.36
2022-12-15T22:43:02.851Z,9.31
2022-12-15T22:45:06.905Z,9.29
2022-12-15T22:47:11.030Z,9.31
2022-12-15T22:49:17.751Z,9.24
2022-12-15T22:51:20.398Z,9.28
2022-12-15T22:53:24.628Z,9.29
2022-12-15T22:55:26.692Z,9.30
2022-12-15T22:57:29.815Z,9.23
2022-12-15T23:00:34.673Z,9.05
2022-12-15T23:02:43.670Z,9.07
2022-12-15T23:04:45.911Z,9.08
2022-12-15T23:06:48.005Z,9.01
2022-12-15T23:08:55.595Z,8.98
2022-12-15T23:11:18.276Z,9.02
2022-12-15T23:13:21.369Z,8.98
2022-12-15T23:15:44.474Z,9.03
2022-12-15T23:17:46.646Z,9.02
2022-12-15T23:19:48.920Z,9.00
2022-12-15T23:21:52.798Z,9.05
2022-12-15T23:23:55.540Z,9.04
2022-12-15T23:25:58.339Z,8.93
2022-12-15T23:28:00.909Z,8.93
2022-12-15T23:30:05.269Z,8.99
2022-12-15T23:32:07.648Z,9.05
2022-12-15T23:34:11.020Z,9.03
2022-12-15T23:36:13.662Z,8.99
2022-12-15T23:38:16.098Z,9.01
2022-12-15T23:40:22.441Z,9.03
2022-12-15T23:42:25.459Z,9.02
2022-12-15T23:44:27.803Z,9.03
2022-12-15T23:46:30.336Z,9.08
2022-12-15T23:48:35.627Z,9.04
2022-12-15T23:50:38.240Z,9.06
2022-12-15T23:52:40.949Z,9.06
2022-12-15T23:54:43.374Z,9.13
2022-12-15T23:56:45.574Z,9.12
2022-12-15T23:58:49.683Z,9.13
